createdAt,value
2023-09-06T00:02:16.708Z,92.12
2023-09-06T00:05:19.942Z,91.10
2023-09-06T00:08:22.842Z,90.05
2023-09-06T00:11:26.713Z,90.57
2023-09-06T00:14:30.904Z,89.71
2023-09-06T00:17:38.850Z,90.51
2023-09-06T00:20:41.807Z,90.37
2023-09-06T00:23:45.007Z,90.01
2023-09-06T00:26:48.472Z,89.54
2023-09-06T00:29:51.468Z,89.44
2023-09-06T00:32:54.519Z,88.84
2023-09-06T00:35:59.476Z,90.01
2023-09-06T00:39:02.409Z,90.57
2023-09-06T00:42:06.196Z,91.00
2023-09-06T00:45:09.300Z,91.28
2023-09-06T00:48:27.932Z,91.53
2023-09-06T00:51:34.114Z,90.97
2023-09-06T00:54:40.890Z,89.97
2023-09-06T00:57:44.511Z,89.25
2023-09-06T01:00:50.392Z,89.39
2023-09-06T01:03:53.413Z,89.65
2023-09-06T01:06:59.973Z,89.57
2023-09-06T01:10:04.836Z,90.35
2023-09-06T01:13:08.039Z,90.39
2023-09-06T01:16:11.692Z,89.96
2023-09-06T01:19:16.495Z,89.93
2023-09-06T01:22:32.808Z,91.24
2023-09-06T01:25:36.227Z,90.86
2023-09-06T01:28:41.168Z,91.77
2023-09-06T01:31:44.516Z,91.43
2023-09-06T01:34:47.394Z,92.74
2023-09-06T01:37:51.896Z,93.25
2023-09-06T01:40:55.237Z,92.93
2023-09-06T01:43:58.303Z,92.61
2023-09-06T01:47:01.088Z,92.00
2023-09-06T01:50:05.842Z,91.41
2023-09-06T01:53:08.895Z,91.68
2023-09-06T01:56:12.026Z,91.97
2023-09-06T01:59:14.736Z,91.26
2023-09-06T02:02:18.796Z,91.71
2023-09-06T02:05:22.038Z,92.65
2023-09-06T02:08:24.893Z,91.72
2023-09-06T02:11:27.972Z,93.01
2023-09-06T02:14:30.654Z,91.52
2023-09-06T02:17:37.170Z,92.74
2023-09-06T02:20:40.556Z,91.78
2023-09-06T02:23:44.685Z,91.95
2023-09-06T02:26:48.247Z,93.09
2023-09-06T02:29:53.023Z,91.04
2023-09-06T02:32:57.031Z,91.31
2023-09-06T02:35:59.764Z,91.54
2023-09-06T02:39:03.124Z,93.13
2023-09-06T02:42:05.925Z,92.00
2023-09-06T02:45:13.433Z,92.13
2023-09-06T02:48:19.924Z,91.81
2023-09-06T02:51:30.464Z,92.46
2023-09-06T02:54:33.170Z,93.06
2023-09-06T02:57:36.387Z,92.73
2023-09-06T03:00:44.062Z,91.80
2023-09-06T03:03:53.172Z,92.64
2023-09-06T03:06:59.070Z,92.71
2023-09-06T03:10:03.057Z,93.54
2023-09-06T03:13:07.012Z,94.33
2023-09-06T03:16:14.882Z,93.93
2023-09-06T03:19:18.637Z,94.47
2023-09-06T03:22:27.392Z,94.12
2023-09-06T03:25:30.750Z,93.69
2023-09-06T03:28:35.151Z,93.02
2023-09-06T03:31:44.125Z,92.68
2023-09-06T03:34:47.473Z,92.63
2023-09-06T03:37:53.568Z,93.03
2023-09-06T03:40:56.923Z,93.49
2023-09-06T03:44:01.285Z,93.27
2023-09-06T03:47:07.094Z,93.00
2023-09-06T03:50:10.233Z,93.27
2023-09-06T03:53:14.755Z,92.65
2023-09-06T03:56:17.558Z,93.83
2023-09-06T03:59:20.907Z,93.67
2023-09-06T04:02:28.774Z,93.88
2023-09-06T04:05:33.913Z,93.40
2023-09-06T04:08:38.093Z,92.89
2023-09-06T04:11:42.331Z,93.58
2023-09-06T04:14:45.204Z,93.86
2023-09-06T04:17:55.624Z,93.62
2023-09-06T04:21:01.309Z,93.44
2023-09-06T04:24:05.666Z,94.65
2023-09-06T04:27:08.421Z,95.54
2023-09-06T04:30:12.268Z,95.76
2023-09-06T04:33:16.189Z,96.05
2023-09-06T04:36:20.403Z,96.65
2023-09-06T04:39:26.473Z,96.43
2023-09-06T04:42:30.029Z,96.46
2023-09-06T04:45:33.996Z,96.64
2023-09-06T04:48:37.876Z,96.54
2023-09-06T04:51:42.424Z,96.66
2023-09-06T04:54:46.451Z,96.32
2023-09-06T04:57:50.915Z,95.12
2023-09-06T05:00:54.159Z,92.84
2023-09-06T05:03:57.274Z,91.84
2023-09-06T05:07:00.657Z,89.92
2023-09-06T05:10:04.960Z,89.20
2023-09-06T05:13:09.857Z,87.95
2023-09-06T05:16:13.408Z,86.92
2023-09-06T05:19:16.900Z,84.49
2023-09-06T05:22:20.517Z,81.91
2023-09-06T05:25:24.548Z,82.52
2023-09-06T05:28:27.486Z,79.80
2023-09-06T05:31:31.523Z,79.17
2023-09-06T05:34:34.668Z,78.84
2023-09-06T05:37:41.707Z,80.21
2023-09-06T05:40:44.985Z,82.11
2023-09-06T05:43:49.381Z,82.60
2023-09-06T05:46:52.618Z,83.72
2023-09-06T05:49:59.377Z,84.54
2023-09-06T05:53:02.319Z,85.85
2023-09-06T05:56:06.244Z,85.95
2023-09-06T05:59:09.222Z,86.29
2023-09-06T06:02:13.421Z,86.21
2023-09-06T06:05:20.077Z,85.92
2023-09-06T06:08:23.044Z,86.50
2023-09-06T06:11:28.389Z,86.49
2023-09-06T06:14:31.911Z,86.49
2023-09-06T06:17:35.055Z,85.82
2023-09-06T06:20:44.134Z,85.50
2023-09-06T06:23:49.311Z,85.93
2023-09-06T06:26:52.549Z,85.72
2023-09-06T06:29:55.786Z,85.62
2023-09-06T06:33:01.765Z,85.78
2023-09-06T06:36:08.334Z,85.07
2023-09-06T06:39:11.799Z,86.21
2023-09-06T06:42:14.879Z,85.32
2023-09-06T06:45:19.415Z,84.61
2023-09-06T06:48:23.200Z,84.08
2023-09-06T06:51:27.124Z,84.18
2023-09-06T06:54:30.238Z,83.74
2023-09-06T06:57:34.913Z,83.77
2023-09-06T07:00:38.074Z,84.02
2023-09-06T07:03:42.185Z,81.36
2023-09-06T07:06:46.037Z,75.97
2023-09-06T07:09:48.928Z,75.41
2023-09-06T07:12:52.003Z,69.96
2023-09-06T07:15:54.886Z,67.87
2023-09-06T07:18:59.993Z,62.88
2023-09-06T07:22:03.692Z,61.48
2023-09-06T07:25:09.407Z,59.18
2023-09-06T07:28:12.069Z,59.94
2023-09-06T07:31:16.024Z,57.46
2023-09-06T07:34:19.059Z,57.54
2023-09-06T07:37:22.431Z,55.87
2023-09-06T07:40:25.204Z,52.65
2023-09-06T07:43:30.040Z,50.45
2023-09-06T07:46:33.650Z,52.61
2023-09-06T07:49:36.909Z,50.34
2023-09-06T07:52:39.775Z,50.35
2023-09-06T07:55:46.720Z,48.04
2023-09-06T07:58:49.586Z,46.28
2023-09-06T08:01:53.392Z,44.74
2023-09-06T08:04:56.621Z,45.65
2023-09-06T08:07:59.896Z,46.25
2023-09-06T08:11:03.074Z,43.91
2023-09-06T08:14:05.934Z,42.97
2023-09-06T08:17:09.832Z,41.70
2023-09-06T08:20:15.855Z,42.59
2023-09-06T08:23:19.151Z,42.31
2023-09-06T08:26:21.986Z,40.91
2023-09-06T08:29:25.672Z,40.22
2023-09-06T08:32:28.570Z,40.20
2023-09-06T08:35:31.998Z,39.20
2023-09-06T08:38:35.143Z,40.46
2023-09-06T08:41:39.587Z,40.55
2023-09-06T08:44:45.217Z,40.61
2023-09-06T08:47:50.369Z,39.43
2023-09-06T08:50:56.354Z,40.62
2023-09-06T08:54:00.932Z,38.84
2023-09-06T08:57:04.357Z,36.47
2023-09-06T09:00:11.358Z,37.15
2023-09-06T09:03:14.464Z,37.48
2023-09-06T09:06:17.638Z,34.55
2023-09-06T09:09:21.508Z,35.75
2023-09-06T09:12:26.332Z,35.50
2023-09-06T09:15:33.767Z,35.27
2023-09-06T09:18:42.071Z,36.00
2023-09-06T09:21:45.072Z,35.15
2023-09-06T09:24:48.333Z,34.87
2023-09-06T09:27:59.783Z,36.05
2023-09-06T09:31:03.800Z,36.40
2023-09-06T09:34:06.743Z,36.67
2023-09-06T09:37:10.905Z,35.32
2023-09-06T09:40:31.619Z,35.21
2023-09-06T09:43:41.128Z,34.76
2023-09-06T09:46:45.356Z,34.52
2023-09-06T09:49:49.086Z,33.93
2023-09-06T09:52:53.744Z,32.95
2023-09-06T09:55:57.666Z,33.90
2023-09-06T09:59:04.403Z,34.75
2023-09-06T10:02:08.623Z,33.38
2023-09-06T10:05:18.228Z,33.51
2023-09-06T10:08:23.096Z,32.60
2023-09-06T10:11:28.160Z,31.71
2023-09-06T10:14:33.694Z,31.71
2023-09-06T10:17:37.075Z,33.15
2023-09-06T10:20:42.015Z,32.26
2023-09-06T10:23:48.368Z,32.10
2023-09-06T10:26:55.008Z,29.09
2023-09-06T10:30:04.577Z,29.88
2023-09-06T10:33:09.832Z,28.58
2023-09-06T10:36:17.618Z,30.77
2023-09-06T10:39:22.725Z,30.98
2023-09-06T10:42:25.785Z,30.26
2023-09-06T10:45:28.904Z,29.25
2023-09-06T10:48:32.158Z,30.14
2023-09-06T10:51:35.007Z,31.15
2023-09-06T10:54:46.295Z,28.66
2023-09-06T10:57:53.275Z,29.57
2023-09-06T11:01:14.878Z,29.26
2023-09-06T11:04:27.591Z,27.77
2023-09-06T11:07:50.051Z,28.62
2023-09-06T11:10:56.178Z,27.98
2023-09-06T11:14:02.684Z,29.17
2023-09-06T11:17:05.456Z,28.21
2023-09-06T11:20:13.791Z,28.46
2023-09-06T11:23:17.840Z,27.99
2023-09-06T11:26:21.241Z,28.82
2023-09-06T11:29:27.780Z,29.08
2023-09-06T11:32:33.623Z,28.17
2023-09-06T11:35:42.028Z,27.60
2023-09-06T11:38:46.528Z,26.06
2023-09-06T11:41:50.075Z,26.90
2023-09-06T11:44:55.400Z,27.71
2023-09-06T11:48:01.176Z,28.76
2023-09-06T11:51:10.182Z,28.11
2023-09-06T11:54:13.651Z,27.92
2023-09-06T11:57:32.167Z,27.36
2023-09-06T12:00:44.581Z,27.30
2023-09-06T12:03:49.081Z,27.04
2023-09-06T12:06:53.871Z,27.89
2023-09-06T12:10:06.598Z,28.80
2023-09-06T12:13:09.752Z,28.39
2023-09-06T12:16:13.341Z,27.96
2023-09-06T12:19:18.965Z,27.27
2023-09-06T12:22:22.832Z,30.95
2023-09-06T12:25:25.672Z,29.52
2023-09-06T12:28:30.799Z,28.31
2023-09-06T12:31:33.868Z,27.92
2023-09-06T12:34:37.076Z,27.10
2023-09-06T12:37:41.244Z,27.12
2023-09-06T12:40:44.846Z,27.49
2023-09-06T12:43:47.961Z,26.05
2023-09-06T12:46:51.217Z,28.19
2023-09-06T12:49:55.092Z,27.95
2023-09-06T12:52:58.436Z,27.63
2023-09-06T12:56:01.262Z,28.39
2023-09-06T12:59:06.039Z,27.91
2023-09-06T13:02:09.230Z,28.22
2023-09-06T13:05:12.536Z,28.15
2023-09-06T13:08:16.913Z,27.22
2023-09-06T13:11:23.617Z,28.04
2023-09-06T13:14:27.003Z,28.10
2023-09-06T13:17:30.595Z,27.58
2023-09-06T13:20:34.845Z,27.01
2023-09-06T13:23:37.897Z,27.07
2023-09-06T13:26:41.802Z,26.39
2023-09-06T13:29:45.254Z,26.17
2023-09-06T13:32:48.280Z,26.89
2023-09-06T13:35:51.671Z,27.23
2023-09-06T13:38:54.593Z,28.54
2023-09-06T13:41:57.796Z,29.16
2023-09-06T13:45:00.788Z,28.64
2023-09-06T13:48:04.379Z,28.97
2023-09-06T13:51:07.292Z,27.87
2023-09-06T13:54:10.643Z,27.62
2023-09-06T13:57:13.416Z,28.32
2023-09-06T14:00:17.810Z,28.96
2023-09-06T14:03:21.429Z,29.29
2023-09-06T14:06:24.758Z,29.14
2023-09-06T14:09:27.837Z,29.65
2023-09-06T14:12:30.837Z,29.31
2023-09-06T14:15:37.007Z,29.95
2023-09-06T14:22:00.092Z,30.26
2023-09-06T14:25:02.684Z,29.78
2023-09-06T14:28:05.947Z,29.78
2023-09-06T14:31:12.291Z,30.65
2023-09-06T14:34:16.869Z,31.02
2023-09-06T14:37:19.765Z,30.75
2023-09-06T14:40:22.778Z,30.48
2023-09-06T14:43:26.006Z,30.13
2023-09-06T14:46:29.103Z,31.02
2023-09-06T14:49:31.840Z,31.54
2023-09-06T14:52:34.950Z,31.03
2023-09-06T14:55:37.934Z,31.06
2023-09-06T14:58:42.642Z,31.41
2023-09-06T15:01:46.840Z,31.65
2023-09-06T15:04:51.204Z,31.62
2023-09-06T15:07:54.940Z,32.20
2023-09-06T15:11:00.547Z,33.43
2023-09-06T15:14:06.391Z,33.63
2023-09-06T15:17:09.884Z,33.34
2023-09-06T15:20:13.540Z,34.40
2023-09-06T15:23:17.445Z,33.99
2023-09-06T15:26:22.571Z,33.94
2023-09-06T15:29:26.099Z,33.88
2023-09-06T15:32:29.244Z,34.01
2023-09-06T15:35:32.871Z,35.19
2023-09-06T15:38:39.974Z,34.59
2023-09-06T15:41:43.300Z,35.23
2023-09-06T15:44:46.333Z,35.77
2023-09-06T15:47:51.412Z,34.87
2023-09-06T15:50:54.603Z,35.79
2023-09-06T15:53:58.173Z,36.41
2023-09-06T15:57:01.251Z,36.54
2023-09-06T16:00:24.362Z,37.28
2023-09-06T16:03:34.154Z,37.24
2023-09-06T16:06:37.831Z,37.44
2023-09-06T16:09:43.014Z,38.76
2023-09-06T16:12:49.175Z,38.76
2023-09-06T16:15:58.054Z,38.97
2023-09-06T16:19:04.022Z,39.62
2023-09-06T16:22:08.506Z,40.61
2023-09-06T16:25:12.684Z,40.13
2023-09-06T16:28:21.103Z,40.27
2023-09-06T16:31:26.684Z,40.61
2023-09-06T16:34:31.405Z,40.73
2023-09-06T16:37:36.233Z,41.80
2023-09-06T16:40:43.772Z,42.14
2023-09-06T16:43:47.482Z,43.44
2023-09-06T16:46:52.537Z,43.43
2023-09-06T16:49:56.032Z,43.48
2023-09-06T16:52:59.387Z,43.86
2023-09-06T16:56:04.588Z,44.28
2023-09-06T16:59:10.385Z,45.00
2023-09-06T17:02:13.680Z,45.70
2023-09-06T17:05:17.470Z,46.86
2023-09-06T17:08:20.530Z,47.70
2023-09-06T17:11:24.481Z,48.52
2023-09-06T17:14:27.793Z,49.83
2023-09-06T17:17:31.991Z,51.05
2023-09-06T17:20:36.766Z,52.47
2023-09-06T17:24:00.678Z,51.73
2023-09-06T17:27:06.065Z,52.98
2023-09-06T17:30:11.619Z,54.64
2023-09-06T17:33:16.772Z,54.34
2023-09-06T17:36:20.681Z,56.33
2023-09-06T17:39:24.788Z,57.13
2023-09-06T17:42:32.892Z,57.23
2023-09-06T17:45:36.217Z,58.13
2023-09-06T17:48:40.678Z,58.27
2023-09-06T17:51:46.088Z,58.56
2023-09-06T17:54:50.727Z,59.14
2023-09-06T17:57:55.114Z,59.52
2023-09-06T18:01:00.333Z,59.12
2023-09-06T18:04:11.828Z,58.41
2023-09-06T18:07:18.408Z,58.05
2023-09-06T18:10:26.656Z,57.96
2023-09-06T18:13:31.526Z,58.55
2023-09-06T18:16:43.877Z,58.50
2023-09-06T18:19:48.507Z,59.18
2023-09-06T18:22:52.468Z,59.52
2023-09-06T18:25:57.864Z,59.26
2023-09-06T18:29:03.278Z,59.47
2023-09-06T18:32:09.949Z,59.36
2023-09-06T18:35:18.742Z,59.97
2023-09-06T18:38:23.604Z,60.42
2023-09-06T18:41:29.454Z,62.15
2023-09-06T18:44:32.948Z,62.93
2023-09-06T18:47:51.542Z,63.68
2023-09-06T18:50:55.929Z,64.89
2023-09-06T18:54:02.941Z,63.54
2023-09-06T18:57:12.220Z,62.58
2023-09-06T19:00:23.623Z,62.13
2023-09-06T19:03:31.629Z,63.14
2023-09-06T19:06:36.099Z,65.31
2023-09-06T19:09:41.156Z,65.10
2023-09-06T19:12:47.621Z,66.92
2023-09-06T19:15:53.537Z,66.87
2023-09-06T19:19:00.073Z,67.62
2023-09-06T19:22:05.625Z,67.94
2023-09-06T19:25:11.174Z,67.86
2023-09-06T19:28:15.208Z,68.32
2023-09-06T19:31:22.526Z,68.45
2023-09-06T19:34:33.650Z,68.25
2023-09-06T19:37:39.693Z,67.59
2023-09-06T19:40:44.309Z,67.43
2023-09-06T19:43:50.081Z,67.89
2023-09-06T19:46:57.352Z,68.46
2023-09-06T19:50:01.113Z,68.11
2023-09-06T19:53:07.820Z,68.23
2023-09-06T19:56:18.387Z,67.67
2023-09-06T19:59:22.970Z,69.86
2023-09-06T20:02:29.242Z,69.51
2023-09-06T20:05:34.958Z,71.60
2023-09-06T20:08:39.328Z,71.05
2023-09-06T20:11:44.522Z,72.20
2023-09-06T20:14:50.040Z,71.72
2023-09-06T20:17:57.680Z,71.61
2023-09-06T20:21:07.308Z,71.56
2023-09-06T20:24:14.202Z,71.98
2023-09-06T20:27:18.270Z,73.43
2023-09-06T20:30:25.430Z,72.14
2023-09-06T20:33:29.192Z,73.00
2023-09-06T20:36:34.747Z,71.55
2023-09-06T20:39:38.253Z,72.82
2023-09-06T20:42:42.188Z,72.82
2023-09-06T20:45:46.510Z,74.19
2023-09-06T20:48:50.360Z,74.59
2023-09-06T20:51:53.847Z,75.06
2023-09-06T20:54:57.555Z,75.50
2023-09-06T20:58:00.912Z,75.50
2023-09-06T21:01:20.761Z,75.22
2023-09-06T21:04:24.438Z,75.02
2023-09-06T21:07:27.639Z,76.29
2023-09-06T21:10:31.197Z,76.95
2023-09-06T21:13:34.513Z,75.71
2023-09-06T21:16:37.328Z,76.43
2023-09-06T21:19:40.726Z,76.53
2023-09-06T21:22:43.538Z,76.93
2023-09-06T21:25:47.138Z,77.38
2023-09-06T21:28:49.843Z,77.56
2023-09-06T21:31:52.945Z,77.38
2023-09-06T21:34:56.067Z,76.93
2023-09-06T21:37:59.102Z,76.88
2023-09-06T21:41:02.757Z,77.07
2023-09-06T21:44:05.988Z,76.52
2023-09-06T21:47:08.884Z,78.17
2023-09-06T21:50:12.086Z,78.53
2023-09-06T21:53:14.868Z,78.21
2023-09-06T21:56:18.140Z,78.08
2023-09-06T21:59:22.085Z,78.96
2023-09-06T22:02:24.626Z,79.54
2023-09-06T22:05:45.998Z,79.16
2023-09-06T22:09:07.330Z,78.66
2023-09-06T22:12:28.345Z,78.33
2023-09-06T22:15:31.832Z,79.01
2023-09-06T22:18:34.524Z,79.92
2023-09-06T22:21:37.574Z,80.24
2023-09-06T22:24:40.396Z,79.71
2023-09-06T22:27:44.264Z,80.10
2023-09-06T22:30:47.402Z,80.14
2023-09-06T22:33:50.786Z,79.88
2023-09-06T22:36:53.642Z,79.57
2023-09-06T22:39:56.705Z,80.06
2023-09-06T22:42:59.510Z,80.20
2023-09-06T22:46:02.826Z,81.04
2023-09-06T22:49:05.757Z,81.16
2023-09-06T22:52:10.690Z,81.36
2023-09-06T22:55:13.547Z,81.47
2023-09-06T22:58:16.617Z,80.12
2023-09-06T23:01:19.554Z,81.53
2023-09-06T23:04:22.769Z,81.48
2023-09-06T23:07:27.122Z,82.28
2023-09-06T23:10:30.633Z,82.99
2023-09-06T23:13:33.502Z,82.54
2023-09-06T23:16:37.083Z,83.36
2023-09-06T23:19:49.796Z,83.08
2023-09-06T23:22:56.100Z,82.29
2023-09-06T23:26:00.125Z,82.49
2023-09-06T23:29:08.342Z,82.48
2023-09-06T23:32:15.829Z,82.43
2023-09-06T23:35:22.015Z,83.15
2023-09-06T23:38:26.345Z,82.88
2023-09-06T23:41:29.634Z,82.52
2023-09-06T23:44:32.515Z,82.70
2023-09-06T23:47:36.421Z,81.89
2023-09-06T23:50:39.244Z,84.08
2023-09-06T23:53:42.366Z,84.00
2023-09-06T23:56:45.053Z,83.60
2023-09-06T23:59:48.263Z,85.52
